< < Back
Terminal Aerodrome Forecast


Current Version              Previous Versions:   1  2  3  4  5  6  7  8  9  

Terminal Aerodrome Forecast

713
FTUS44 KBMX 170500
TAFANB
TAF
KANB 170533Z 1706/1806 00000KT 4SM BR FEW100
     FM171100 00000KT 6SM BR FEW002 SCT015 BKN035
      TEMPO 1711/1713 4SM BR
     FM171500 33007KT P6SM SCT250
     FM180000 00000KT P6SM SCT250=



Latest METAR

778
SAUS70 KWBC 170700 RRM
MTRANB
METAR KANB 170653Z AUTO 00000KT 5SM BR CLR 21/20 A3000 RMK AO2 SLP151
T02110200


USA.gov is the U.S. government's official web portal to all federal, state and local government web resources and services.